Strona główna
METAR-TAF:

METAR-TAF

Lotnisko :

Gwinner, Dakota Północna, Stany Zjednoczone

Szerokość geograficzna: 46-13-07N, Długość geograficzna: 097-38-37W, wysokość: 386 m

Aktualna obserwacja pogody

Raport powstał 25 minut temu, godzina 03:15 UTC
Wiatr 8 kt od zachód
Temperatura -16°C
Wilgotność 84%
Ciśnienie 1014 hPa
Widzialność: 14.5 km
Mało chmury na wysokości 4500 ft
Zachmurzenie całkowite na wysokości 5500 ft

METAR: KGWR 100315Z AUTO 26008KT 9SM FEW045 OVC055 M16/M18 A2994 RMK A01

czas: 21:40 (03:40 UTC)


TAF: brakujący

Obserwacja i prognoza pogody dla ponad 4000 lotnisk (raport METAR i TAF).

Dostępne stacje oznaczono żółtymi i czerwonymi punktami na mapie.

Najedź kursorem aby zobaczyć nazwę stacji.

Kliknij aby zobaczyć obserwacje i prognozy pogody.

Aby zmienić mapę: kliknij na zielony przycisk z czarnym krzyżykiem, aby powiększyć; na zielony przycisk z myślnikiem, aby pomniejszyć; na zielone strzałki, aby przejść do map sąsiednich.


METAR-TAF: